Custom Search

Airport METAR Reports

 

YMAV - Avalon Airport, Australia
Distance from station: 0 0km
Updated: 19/08/2017 07:30
Mostly cloudy
Mostly cloudy
 Wind from W
Wind: W 13 km/h
Temperature: 5°C
Wind Chill: 2°C
Dew Point: 4°C
Humidity: 93%
Barometer: 1025 hPa
Clouds: Mostly cloudy
Visibility: 10 km
Cloud details: Partly cloudy 975 m
Mostly cloudy 1219 m
2017/08/18 21:30 YMAV 182130Z AUTO 27007KT 9999 // SCT032 BKN040 05/04 Q1025
YMML - Melbourne Intl A, Australia
Distance from station: NE 50km
Updated: 19/08/2017 07:30
Mostly cloudy
Mostly cloudy
 Wind from SW
Wind: SW 13 km/h
Temperature: 5°C
Wind Chill: 2°C
Dew Point: 3°C
Humidity: 87%
Barometer: 1024 hPa
Clouds: Mostly cloudy
Visibility: 10 km
Cloud details: Few Clouds 549 m
Mostly cloudy 640 m
2017/08/18 21:30 YMML 182130Z 23007KT 9999 FEW018 BKN021 05/03 Q1024 INTER 2130/2330 5000 SHRA BKN025
YMEN - Melbourne/Essend, Australia
Distance from station: NE 51km
Updated: 19/08/2017 07:33
Overcast
Overcast
 Wind from W
Wind: W 11 km/h
Temperature: 5°C
Wind Chill: 2°C
Dew Point: 5°C
Humidity: 100%
Barometer: 1024 hPa
Clouds: Overcast
Visibility: 10 km
Cloud details: Partly cloudy 488 m
Mostly cloudy 1097 m
Overcast 1311 m
2017/08/18 21:33 YMEN 182133Z AUTO 26006KT 9999 // SCT016 BKN036 OVC043 05/05 Q1024
 
YWGT - Wangaratta Arp, Australia
Distance from station: NE 241km
Updated: 19/08/2017 07:00
Clear
Clear
 Wind from SW
Wind: SW 19 km/h
Temperature: 4°C
Wind Chill: 0°C
Dew Point: 3°C
Humidity: 93%
Barometer: 1021 hPa
Clouds: Clear
Visibility: 10 km
2017/08/18 21:00 YWGT 182100Z AUTO 23010KT 9999 // NCD 04/03 Q1021
YMAY - Albury Airport, Australia
Distance from station: NE 308km
Updated: 19/08/2017 07:00
Clear
Clear
 Wind from SE
Wind: SE 6 km/h
Temperature: 3°C
Dew Point: 2°C
Humidity: 93%
Barometer: 1021 hPa
Clouds: Clear
Visibility: 10 km
2017/08/18 21:00 YMAY 182100Z AUTO 13003KT 9999 // NCD 03/02 Q1021
YMTG - Mount Gambier, Australia
Distance from station: W 326km
Updated: 19/08/2017 07:00
Mostly cloudy
Mostly cloudy
 Wind from calm
Wind: Calm
Temperature: 2°C
Dew Point: 2°C
Humidity: 100%
Barometer: 1027 hPa
Clouds: Mostly cloudy
Visibility: 10 km
Cloud details: Partly cloudy 1189 m
Mostly cloudy 1524 m
2017/08/18 21:00 YMTG 182100Z AUTO 00000KT 9999 // SCT039 BKN050 02/02 Q1027
 
YNAR - Narrandera, Australia
Distance from station: NNE 413km
Updated: 19/08/2017 07:00

 Wind from WSW
Wind: WSW 13 km/h
Temperature: 2°C
Wind Chill: -1°C
Dew Point: 1°C
Humidity: 93%
Barometer: 1023 hPa
2017/08/18 21:00 YNAR 182100Z AUTO 24007KT //// // ////// 02/01 Q1023
YSWG - Wagga Wagga(Cv/M, Australia
Distance from station: NE 418km
Updated: 19/08/2017 07:30
Mostly cloudy
Mostly cloudy
 Wind from SSW
Wind: SSW 20 km/h
Temperature: 4°C
Wind Chill: -1°C
Dew Point: 2°C
Humidity: 87%
Barometer: 1021 hPa
Clouds: Mostly cloudy
Visibility: 10 km
Cloud details: Mostly cloudy 366 m
2017/08/18 21:30 YSWG 182130Z AUTO 20011KT 9999 // BKN012 04/02 Q1021
YCOM - Cooma Snowy Mtns, Australia
Distance from station: ENE 441km
Updated: 19/08/2017 07:24
Mostly cloudy
Mostly cloudy
 Wind from SW
Wind: SW 31 km/h
Temperature: -1°C
Wind Chill: -8°C
Dew Point: -1°C
Humidity: 100%
Barometer: 1016 hPa
Clouds: Mostly cloudy
Visibility: 10 km
Cloud details: Partly cloudy 213 m
Partly cloudy 701 m
Mostly cloudy 1006 m
2017/08/18 21:24 YCOM 182124Z AUTO 22017KT 9999 // SCT007 SCT023 BKN033 M01/M01 Q1016
 
YGTH - Griffith Arpt, Australia
Distance from station: NNE 444km
Updated: 19/08/2017 07:00
Clear
Clear
 Wind from WNW
Wind: WNW 11 km/h
Temperature: 0°C
Wind Chill: -4°C
Dew Point: -1°C
Humidity: 93%
Barometer: 1023 hPa
Clouds: Clear
Visibility: 10 km
2017/08/18 21:00 YGTH 182100Z AUTO 29006KT 9999 // NCD M00/M01 Q1023
YMLT - Launceston Airpo, Australia
Distance from station: SSE 451km
Updated: 19/08/2017 07:30
Clear
Clear
 Wind from SSE
Wind: SSE 9 km/h
Temperature: 1°C
Wind Chill: -2°C
Dew Point: -4°C
Humidity: 70%
Barometer: 1021 hPa
Clouds: Clear
Visibility: 10 km
2017/08/18 21:30 YMLT 182130Z AUTO 15005KT 9999 // NCD 01/M04 Q1021 RF00.0/000.2
YMIA - Mildura Arpt, Australia
Distance from station: NNW 474km
Updated: 19/08/2017 07:00
Clear
Clear
 Wind from WSW
Wind: WSW 7 km/h
Temperature: 3°C
Wind Chill: 1°C
Dew Point: 2°C
Humidity: 93%
Barometer: 1027 hPa
Clouds: Clear
Visibility: 10 km
2017/08/18 21:00 YMIA 182100Z AUTO 24004KT 9999 // NCD 03/02 Q1027
 
YMER - Merimbula Arpt, Australia
Distance from station: ENE 494km
Updated: 19/08/2017 07:00
Mostly cloudy
Mostly cloudy
 Wind from SW
Wind: SW 20 km/h
Temperature: 7°C
Wind Chill: 4°C
Dew Point: 3°C
Humidity: 76%
Barometer: 1017 hPa
Clouds: Mostly cloudy
Visibility: 10 km
Cloud details: Partly cloudy 1036 m
Partly cloudy 1311 m
Mostly cloudy 1524 m
2017/08/18 21:00 YMER 182100Z AUTO 23011KT 9999 // SCT034 SCT043 BKN050 07/03 Q1017
YSCB - Canberra (civ/Mi, Australia
Distance from station: NE 518km
Updated: 19/08/2017 07:30
Few Clouds
Few Clouds
 Wind from S
Wind: S 6 km/h
Temperature: -1°C
Dew Point: -3°C
Humidity: 86%
Barometer: 1018 hPa
Clouds: Few Clouds
Visibility: 10 km
Cloud details: Few Clouds 610 m
2017/08/18 21:30 YSCB 182130Z 17003KT 9999 FEW020 M01/M03 Q1018 NOSIG
YMHB - Hobart/Tasmania, Australia
Distance from station: SSE 590km
Updated: 19/08/2017 07:30
Few Clouds
Few Clouds
 Wind from W
Wind: W 13 km/h
Temperature: 4°C
Wind Chill: 1°C
Dew Point: -2°C
Humidity: 65%
Barometer: 1022 hPa
Clouds: Few Clouds
Visibility: 10 km
Cloud details: Few Clouds 610 m
2017/08/18 21:30 YMHB 182130Z 27007KT 9999 FEW020 04/M02 Q1022